PWSweather.com
Personal Weather Stations
Station Observations
METEOC500
Santo Antonio, FunchalPT 2020

Santo AntonioFunchalPT 2020

Lat: 32.678227, Lon: -16.945054

Elevation: 1669.94751

Station Type: WH Series

High Low Average
Temperature 59.7°F15.4°C 53.4°F11.9°C 56.1°F13.4°C
Dew Point 52.5°F11.4°C 46.2°F7.9°C 49.5°F9.7°C
Winds 19.0 mph 30.6 kmh Calm Calm 3.0 mph W4.8 kmh W
Wind Gusts 25.1 mph40.4 kmh 2.5 mph4.0 kmh 9.0 mph14.5 kmh
Humidity 89% 68% 79%
Pressure 30.20 in1022.7 mb 30.12 in1020.0 mb -
Precipitation 0.02 in0.5 mm - -
Hour Temp Dew Point Humidity Winds Wind Gusts Pressure Precip Precip Rate Daily Precip Total
12:06 AM 57.0°F13.9°C 52.5°F11.4°C 85% 4.7 mph NW7.6 kmh NW 10.1 mph16.3 kmh 30.18 in1022.0 mb 0.00 in0.0 mm 0.00 in0.0 mm 0.00 in0.0 mm
12:21 AM 56.7°F13.7°C 52.2°F11.2°C 85% 7.8 mph NNW12.6 kmh NNW 10.1 mph16.3 kmh 30.17 in1021.7 mb 0.00 in0.0 mm 0.00 in0.0 mm 0.00 in0.0 mm
12:36 AM 56.3°F13.5°C 51.8°F11.0°C 85% 9.2 mph NNW14.8 kmh NNW 10.1 mph16.3 kmh 30.16 in1021.3 mb 0.00 in0.0 mm 0.00 in0.0 mm 0.00 in0.0 mm
12:51 AM 56.3°F13.5°C 52.2°F11.2°C 86% 1.3 mph NNW2.1 kmh NNW 15.0 mph24.1 kmh 30.16 in1021.3 mb 0.00 in0.0 mm 0.00 in0.0 mm 0.00 in0.0 mm
01:06 AM 56.3°F13.5°C 51.4°F10.8°C 84% 6.9 mph NNW11.1 kmh NNW 10.1 mph16.3 kmh 30.15 in1021.0 mb 0.00 in0.0 mm 0.00 in0.0 mm 0.00 in0.0 mm
01:21 AM 56.3°F13.5°C 51.4°F10.8°C 84% 8.5 mph NNW13.7 kmh NNW 10.1 mph16.3 kmh 30.16 in1021.3 mb 0.00 in0.0 mm 0.00 in0.0 mm 0.00 in0.0 mm
01:36 AM 56.3°F13.5°C 51.8°F11.0°C 85% 7.6 mph NNW12.2 kmh NNW 12.5 mph20.1 kmh 30.16 in1021.3 mb 0.00 in0.0 mm 0.00 in0.0 mm 0.00 in0.0 mm
01:51 AM 56.3°F13.5°C 51.4°F10.8°C 84% 4.9 mph NW7.9 kmh NW 12.5 mph20.1 kmh 30.14 in1020.7 mb 0.00 in0.0 mm 0.00 in0.0 mm 0.00 in0.0 mm
02:06 AM 56.3°F13.5°C 51.8°F11.0°C 85% 3.1 mph NNW5.0 kmh NNW 4.9 mph7.9 kmh 30.14 in1020.7 mb 0.00 in0.0 mm 0.00 in0.0 mm 0.00 in0.0 mm
02:21 AM 56.3°F13.5°C 51.3°F10.7°C 83% 2.2 mph NW3.5 kmh NW 12.5 mph20.1 kmh 30.14 in1020.7 mb 0.00 in0.0 mm 0.00 in0.0 mm 0.00 in0.0 mm
02:36 AM 56.3°F13.5°C 51.3°F10.7°C 83% 1.8 mph NNE2.9 kmh NNE 7.6 mph12.2 kmh 30.14 in1020.7 mb 0.00 in0.0 mm 0.00 in0.0 mm 0.00 in0.0 mm
02:51 AM 56.5°F13.6°C 50.7°F10.4°C 81% 0.7 mph NW1.1 kmh NW 7.6 mph12.2 kmh 30.14 in1020.7 mb 0.00 in0.0 mm 0.00 in0.0 mm 0.00 in0.0 mm
03:06 AM 56.7°F13.7°C 51.3°F10.7°C 82% 5.6 mph N9.0 kmh N 7.6 mph12.2 kmh 30.15 in1021.0 mb 0.00 in0.0 mm 0.00 in0.0 mm 0.00 in0.0 mm
03:21 AM 56.7°F13.7°C 49.1°F9.5°C 76% 4.0 mph NNW6.4 kmh NNW 12.5 mph20.1 kmh 30.14 in1020.7 mb 0.00 in0.0 mm 0.00 in0.0 mm 0.00 in0.0 mm
03:36 AM 56.8°F13.8°C 48.6°F9.2°C 74% 0.9 mph WNW1.4 kmh WNW 12.5 mph20.1 kmh 30.13 in1020.3 mb 0.00 in0.0 mm 0.00 in0.0 mm 0.00 in0.0 mm
03:51 AM 56.7°F13.7°C 46.9°F8.3°C 70% 19.0 mph NNW30.6 kmh NNW 20.1 mph32.3 kmh 30.13 in1020.3 mb 0.00 in0.0 mm 0.00 in0.0 mm 0.00 in0.0 mm
04:06 AM 56.7°F13.7°C 46.6°F8.1°C 69% Calm Calm 25.1 mph40.4 kmh 30.12 in1020.0 mb 0.00 in0.0 mm 0.00 in0.0 mm 0.00 in0.0 mm
04:21 AM 56.5°F13.6°C 46.8°F8.2°C 70% 1.6 mph SW2.6 kmh SW 7.6 mph12.2 kmh 30.12 in1020.0 mb 0.00 in0.0 mm 0.00 in0.0 mm 0.00 in0.0 mm
04:36 AM 56.3°F13.5°C 46.2°F7.9°C 69% 3.1 mph NW5.0 kmh NW 7.6 mph12.2 kmh 30.13 in1020.3 mb 0.00 in0.0 mm 0.00 in0.0 mm 0.00 in0.0 mm
04:51 AM 56.3°F13.5°C 46.2°F7.9°C 69% 3.4 mph WNW5.5 kmh WNW 10.1 mph16.3 kmh 30.13 in1020.3 mb 0.00 in0.0 mm 0.00 in0.0 mm 0.00 in0.0 mm
05:07 AM 56.3°F13.5°C 46.9°F8.3°C 71% 2.5 mph N4.0 kmh N 12.5 mph20.1 kmh 30.13 in1020.3 mb 0.00 in0.0 mm 0.00 in0.0 mm 0.00 in0.0 mm
05:22 AM 55.9°F13.3°C 46.8°F8.2°C 71% 2.2 mph NW3.5 kmh NW 7.6 mph12.2 kmh 30.13 in1020.3 mb 0.00 in0.0 mm 0.00 in0.0 mm 0.00 in0.0 mm
05:37 AM 55.4°F13.0°C 46.2°F7.9°C 71% 0.2 mph SW0.3 kmh SW 7.6 mph12.2 kmh 30.13 in1020.3 mb 0.00 in0.0 mm 0.00 in0.0 mm 0.00 in0.0 mm
05:52 AM 55.0°F12.8°C 46.6°F8.1°C 73% 1.6 mph NNW2.6 kmh NNW 4.9 mph7.9 kmh 30.12 in1020.0 mb 0.00 in0.0 mm 0.00 in0.0 mm 0.00 in0.0 mm
06:07 AM 55.0°F12.8°C 46.2°F7.9°C 72% Calm Calm 7.6 mph12.2 kmh 30.14 in1020.7 mb 0.00 in0.0 mm 0.00 in0.0 mm 0.00 in0.0 mm
06:22 AM 55.2°F12.9°C 47.1°F8.4°C 74% Calm Calm 2.5 mph4.0 kmh 30.13 in1020.3 mb 0.00 in0.0 mm 0.00 in0.0 mm 0.00 in0.0 mm
06:37 AM 54.9°F12.7°C 48.2°F9.0°C 78% 8.7 mph NW14.0 kmh NW 12.5 mph20.1 kmh 30.14 in1020.7 mb 0.00 in0.0 mm 0.00 in0.0 mm 0.00 in0.0 mm
06:52 AM 54.0°F12.2°C 48.6°F9.2°C 82% 6.9 mph NNW11.1 kmh NNW 12.5 mph20.1 kmh 30.14 in1020.7 mb 0.00 in0.0 mm 0.00 in0.0 mm 0.00 in0.0 mm
07:07 AM 53.4°F11.9°C 47.7°F8.7°C 81% 1.6 mph N2.6 kmh N 10.1 mph16.3 kmh 30.14 in1020.7 mb 0.00 in0.0 mm 0.00 in0.0 mm 0.00 in0.0 mm
07:22 AM 53.6°F12.0°C 48.6°F9.2°C 83% 8.5 mph N13.7 kmh N 12.5 mph20.1 kmh 30.14 in1020.7 mb 0.00 in0.0 mm 0.00 in0.0 mm 0.00 in0.0 mm
07:37 AM 53.8°F12.1°C 47.5°F8.6°C 79% Calm Calm 12.5 mph20.1 kmh 30.15 in1021.0 mb 0.00 in0.0 mm 0.00 in0.0 mm 0.00 in0.0 mm
07:52 AM 54.1°F12.3°C 47.8°F8.8°C 79% 4.9 mph NNW7.9 kmh NNW 7.6 mph12.2 kmh 30.16 in1021.3 mb 0.00 in0.0 mm 0.00 in0.0 mm 0.00 in0.0 mm
08:07 AM 54.1°F12.3°C 48.4°F9.1°C 81% 6.3 mph N10.1 kmh N 7.6 mph12.2 kmh 30.16 in1021.3 mb 0.00 in0.0 mm 0.00 in0.0 mm 0.00 in0.0 mm
08:22 AM 54.0°F12.2°C 48.9°F9.4°C 83% 1.8 mph N2.9 kmh N 7.6 mph12.2 kmh 30.17 in1021.7 mb 0.00 in0.0 mm 0.00 in0.0 mm 0.00 in0.0 mm
08:37 AM 53.6°F12.0°C 47.8°F8.8°C 81% 5.4 mph NNW8.7 kmh NNW 10.1 mph16.3 kmh 30.16 in1021.3 mb 0.00 in0.0 mm 0.00 in0.0 mm 0.00 in0.0 mm
08:52 AM 54.0°F12.2°C 48.0°F8.9°C 80% 4.0 mph NNW6.4 kmh NNW 10.1 mph16.3 kmh 30.17 in1021.7 mb 0.00 in0.0 mm 0.00 in0.0 mm 0.00 in0.0 mm
09:07 AM 54.1°F12.3°C 50.0°F10.0°C 86% 3.8 mph NNW6.1 kmh NNW 7.6 mph12.2 kmh 30.18 in1022.0 mb 0.00 in0.0 mm 0.00 in0.0 mm 0.00 in0.0 mm
09:22 AM 53.8°F12.1°C 49.6°F9.8°C 86% 5.4 mph NNW8.7 kmh NNW 10.1 mph16.3 kmh 30.18 in1022.0 mb 0.00 in0.0 mm 0.00 in0.0 mm 0.00 in0.0 mm
09:37 AM 53.8°F12.1°C 49.5°F9.7°C 85% 2.9 mph NNW4.7 kmh NNW 7.6 mph12.2 kmh 30.19 in1022.4 mb 0.00 in0.0 mm 0.00 in0.0 mm 0.00 in0.0 mm
09:52 AM 54.3°F12.4°C 50.2°F10.1°C 86% 4.7 mph N7.6 kmh N 7.6 mph12.2 kmh 30.18 in1022.0 mb 0.00 in0.0 mm 0.00 in0.0 mm 0.00 in0.0 mm
10:07 AM 54.3°F12.4°C 49.6°F9.8°C 84% 0.7 mph N1.1 kmh N 7.6 mph12.2 kmh 30.19 in1022.4 mb 0.01 in0.3 mm 0.01 in0.3 mm 0.01 in0.3 mm
10:22 AM 54.3°F12.4°C 50.5°F10.3°C 87% Calm Calm 7.6 mph12.2 kmh 30.19 in1022.4 mb 0.01 in0.3 mm 0.00 in0.0 mm 0.01 in0.3 mm
10:37 AM 54.3°F12.4°C 50.2°F10.1°C 86% 5.6 mph NW9.0 kmh NW 7.6 mph12.2 kmh 30.20 in1022.7 mb 0.01 in0.3 mm 0.00 in0.0 mm 0.01 in0.3 mm
10:52 AM 54.3°F12.4°C 50.2°F10.1°C 86% 3.4 mph N5.5 kmh N 7.6 mph12.2 kmh 30.20 in1022.7 mb 0.01 in0.3 mm 0.00 in0.0 mm 0.01 in0.3 mm
11:08 AM 54.5°F12.5°C 51.1°F10.6°C 88% 3.4 mph NNW5.5 kmh NNW 7.6 mph12.2 kmh 30.20 in1022.7 mb 0.01 in0.3 mm 0.00 in0.0 mm 0.02 in0.5 mm
11:23 AM 54.7°F12.6°C 50.5°F10.3°C 86% 2.2 mph N3.5 kmh N 7.6 mph12.2 kmh 30.20 in1022.7 mb 0.01 in0.3 mm 0.00 in0.0 mm 0.02 in0.5 mm
11:38 AM 55.2°F12.9°C 49.1°F9.5°C 80% 0.2 mph ENE0.3 kmh ENE 4.9 mph7.9 kmh 30.20 in1022.7 mb 0.01 in0.3 mm 0.00 in0.0 mm 0.02 in0.5 mm
11:53 AM 57.2°F14.0°C 49.3°F9.6°C 75% 2.9 mph S4.7 kmh S 7.6 mph12.2 kmh 30.19 in1022.4 mb 0.01 in0.3 mm 0.00 in0.0 mm 0.02 in0.5 mm
12:08 PM 59.0°F15.0°C 49.3°F9.6°C 70% 2.9 mph SE4.7 kmh SE 7.6 mph12.2 kmh 30.19 in1022.4 mb 0.00 in0.0 mm 0.00 in0.0 mm 0.02 in0.5 mm
12:23 PM 59.4°F15.2°C 49.6°F9.8°C 70% 1.3 mph S2.1 kmh S 12.5 mph20.1 kmh 30.18 in1022.0 mb 0.00 in0.0 mm 0.00 in0.0 mm 0.02 in0.5 mm
12:38 PM 59.0°F15.0°C 50.0°F10.0°C 72% 1.6 mph SE2.6 kmh SE 7.6 mph12.2 kmh 30.17 in1021.7 mb 0.00 in0.0 mm 0.00 in0.0 mm 0.02 in0.5 mm
12:53 PM 58.8°F14.9°C 49.8°F9.9°C 72% 2.2 mph SE3.5 kmh SE 7.6 mph12.2 kmh 30.16 in1021.3 mb 0.00 in0.0 mm 0.00 in0.0 mm 0.02 in0.5 mm
01:08 PM 58.8°F14.9°C 48.2°F9.0°C 68% 3.1 mph E5.0 kmh E 7.6 mph12.2 kmh 30.16 in1021.3 mb 0.00 in0.0 mm 0.00 in0.0 mm 0.02 in0.5 mm
01:23 PM 59.2°F15.1°C 49.1°F9.5°C 69% Calm Calm 10.1 mph16.3 kmh 30.16 in1021.3 mb 0.00 in0.0 mm 0.00 in0.0 mm 0.02 in0.5 mm
01:38 PM 59.5°F15.3°C 50.9°F10.5°C 73% 3.1 mph S5.0 kmh S 7.6 mph12.2 kmh 30.14 in1020.7 mb 0.00 in0.0 mm 0.00 in0.0 mm 0.02 in0.5 mm
01:53 PM 59.5°F15.3°C 49.8°F9.9°C 70% 0.7 mph S1.1 kmh S 10.1 mph16.3 kmh 30.15 in1021.0 mb 0.00 in0.0 mm 0.00 in0.0 mm 0.02 in0.5 mm
02:08 PM 59.4°F15.2°C 49.6°F9.8°C 70% 2.9 mph S4.7 kmh S 10.1 mph16.3 kmh 30.14 in1020.7 mb 0.00 in0.0 mm 0.00 in0.0 mm 0.02 in0.5 mm
02:23 PM 59.4°F15.2°C 50.4°F10.2°C 72% 0.2 mph SSW0.3 kmh SSW 12.5 mph20.1 kmh 30.14 in1020.7 mb 0.00 in0.0 mm 0.00 in0.0 mm 0.02 in0.5 mm
02:38 PM 59.5°F15.3°C 50.2°F10.1°C 71% Calm Calm 10.1 mph16.3 kmh 30.13 in1020.3 mb 0.00 in0.0 mm 0.00 in0.0 mm 0.02 in0.5 mm
02:53 PM 59.7°F15.4°C 50.4°F10.2°C 71% 2.5 mph SE4.0 kmh SE 7.6 mph12.2 kmh 30.13 in1020.3 mb 0.00 in0.0 mm 0.00 in0.0 mm 0.02 in0.5 mm
03:08 PM 59.4°F15.2°C 50.0°F10.0°C 71% 1.6 mph SSW2.6 kmh SSW 7.6 mph12.2 kmh 30.13 in1020.3 mb 0.00 in0.0 mm 0.00 in0.0 mm 0.02 in0.5 mm
03:24 PM 59.2°F15.1°C 50.5°F10.3°C 73% Calm Calm 4.9 mph7.9 kmh 30.13 in1020.3 mb 0.00 in0.0 mm 0.00 in0.0 mm 0.02 in0.5 mm
03:39 PM 59.2°F15.1°C 50.5°F10.3°C 73% 0.2 mph SSE0.3 kmh SSE 10.1 mph16.3 kmh 30.13 in1020.3 mb 0.00 in0.0 mm 0.00 in0.0 mm 0.02 in0.5 mm
03:54 PM 59.4°F15.2°C 50.0°F10.0°C 71% 0.2 mph S0.3 kmh S 4.9 mph7.9 kmh 30.12 in1020.0 mb 0.00 in0.0 mm 0.00 in0.0 mm 0.02 in0.5 mm
04:09 PM 59.4°F15.2°C 50.7°F10.4°C 73% Calm Calm 4.9 mph7.9 kmh 30.12 in1020.0 mb 0.00 in0.0 mm 0.00 in0.0 mm 0.02 in0.5 mm
04:24 PM 59.2°F15.1°C 49.5°F9.7°C 70% Calm Calm 7.6 mph12.2 kmh 30.13 in1020.3 mb 0.00 in0.0 mm 0.00 in0.0 mm 0.02 in0.5 mm
04:39 PM 59.0°F15.0°C 49.3°F9.6°C 70% 0.2 mph SE0.3 kmh SE 4.9 mph7.9 kmh 30.12 in1020.0 mb 0.00 in0.0 mm 0.00 in0.0 mm 0.02 in0.5 mm
04:54 PM 59.0°F15.0°C 48.4°F9.1°C 68% 3.1 mph SSW5.0 kmh SSW 7.6 mph12.2 kmh 30.12 in1020.0 mb 0.00 in0.0 mm 0.00 in0.0 mm 0.02 in0.5 mm
05:09 PM 58.8°F14.9°C 50.2°F10.1°C 73% 3.8 mph S6.1 kmh S 10.1 mph16.3 kmh 30.13 in1020.3 mb 0.00 in0.0 mm 0.00 in0.0 mm 0.02 in0.5 mm
05:24 PM 58.5°F14.7°C 49.8°F9.9°C 73% 2.2 mph SSE3.5 kmh SSE 10.1 mph16.3 kmh 30.12 in1020.0 mb 0.00 in0.0 mm 0.00 in0.0 mm 0.02 in0.5 mm
05:39 PM 58.3°F14.6°C 48.9°F9.4°C 71% Calm Calm 10.1 mph16.3 kmh 30.13 in1020.3 mb 0.00 in0.0 mm 0.00 in0.0 mm 0.02 in0.5 mm
05:54 PM 58.1°F14.5°C 48.4°F9.1°C 70% 1.6 mph ESE2.6 kmh ESE 4.9 mph7.9 kmh 30.12 in1020.0 mb 0.00 in0.0 mm 0.00 in0.0 mm 0.02 in0.5 mm
06:09 PM 57.9°F14.4°C 49.3°F9.6°C 73% Calm Calm 2.5 mph4.0 kmh 30.12 in1020.0 mb 0.00 in0.0 mm 0.00 in0.0 mm 0.02 in0.5 mm
06:24 PM 57.4°F14.1°C 49.8°F9.9°C 76% 2.2 mph N3.5 kmh N 4.9 mph7.9 kmh 30.12 in1020.0 mb 0.00 in0.0 mm 0.00 in0.0 mm 0.02 in0.5 mm
06:39 PM 56.3°F13.5°C 50.2°F10.1°C 80% Calm Calm 10.1 mph16.3 kmh 30.12 in1020.0 mb 0.00 in0.0 mm 0.00 in0.0 mm 0.02 in0.5 mm
06:54 PM 55.0°F12.8°C 50.0°F10.0°C 83% 6.3 mph NNW10.1 kmh NNW 7.6 mph12.2 kmh 30.12 in1020.0 mb 0.00 in0.0 mm 0.00 in0.0 mm 0.02 in0.5 mm
07:10 PM 54.5°F12.5°C 49.1°F9.5°C 82% 4.9 mph NNW7.9 kmh NNW 12.5 mph20.1 kmh 30.13 in1020.3 mb 0.00 in0.0 mm 0.00 in0.0 mm 0.02 in0.5 mm
07:25 PM 54.3°F12.4°C 49.6°F9.8°C 84% 4.7 mph NNW7.6 kmh NNW 10.1 mph16.3 kmh 30.14 in1020.7 mb 0.00 in0.0 mm 0.00 in0.0 mm 0.02 in0.5 mm
07:40 PM 54.3°F12.4°C 49.8°F9.9°C 85% 4.7 mph NNW7.6 kmh NNW 10.1 mph16.3 kmh 30.14 in1020.7 mb 0.00 in0.0 mm 0.00 in0.0 mm 0.02 in0.5 mm
07:55 PM 54.5°F12.5°C 49.8°F9.9°C 84% 7.6 mph NNW12.2 kmh NNW 10.1 mph16.3 kmh 30.14 in1020.7 mb 0.00 in0.0 mm 0.00 in0.0 mm 0.02 in0.5 mm
08:10 PM 54.3°F12.4°C 50.2°F10.1°C 86% 4.5 mph NW7.2 kmh NW 10.1 mph16.3 kmh 30.14 in1020.7 mb 0.00 in0.0 mm 0.00 in0.0 mm 0.02 in0.5 mm
08:25 PM 54.3°F12.4°C 49.6°F9.8°C 84% 6.3 mph NNW10.1 kmh NNW 10.1 mph16.3 kmh 30.15 in1021.0 mb 0.00 in0.0 mm 0.00 in0.0 mm 0.02 in0.5 mm
08:40 PM 54.3°F12.4°C 49.8°F9.9°C 85% 7.8 mph NNW12.6 kmh NNW 12.5 mph20.1 kmh 30.15 in1021.0 mb 0.00 in0.0 mm 0.00 in0.0 mm 0.02 in0.5 mm
08:55 PM 54.3°F12.4°C 50.2°F10.1°C 86% 5.6 mph NNW9.0 kmh NNW 10.1 mph16.3 kmh 30.15 in1021.0 mb 0.00 in0.0 mm 0.00 in0.0 mm 0.02 in0.5 mm
09:10 PM 54.3°F12.4°C 50.2°F10.1°C 86% 4.9 mph NNW7.9 kmh NNW 12.5 mph20.1 kmh 30.15 in1021.0 mb 0.00 in0.0 mm 0.00 in0.0 mm 0.02 in0.5 mm
09:25 PM 54.3°F12.4°C 49.8°F9.9°C 85% 4.5 mph NNW7.2 kmh NNW 7.6 mph12.2 kmh 30.15 in1021.0 mb 0.00 in0.0 mm 0.00 in0.0 mm 0.02 in0.5 mm
09:40 PM 54.3°F12.4°C 49.6°F9.8°C 84% 6.5 mph N10.5 kmh N 7.6 mph12.2 kmh 30.16 in1021.3 mb 0.00 in0.0 mm 0.00 in0.0 mm 0.02 in0.5 mm
09:55 PM 54.5°F12.5°C 50.0°F10.0°C 85% 4.0 mph NW6.4 kmh NW 10.1 mph16.3 kmh 30.16 in1021.3 mb 0.00 in0.0 mm 0.00 in0.0 mm 0.02 in0.5 mm
10:10 PM 54.5°F12.5°C 50.4°F10.2°C 86% 3.4 mph NNW5.5 kmh NNW 7.6 mph12.2 kmh 30.16 in1021.3 mb 0.00 in0.0 mm 0.00 in0.0 mm 0.02 in0.5 mm
10:25 PM 54.5°F12.5°C 50.4°F10.2°C 86% 4.0 mph NW6.4 kmh NW 10.1 mph16.3 kmh 30.16 in1021.3 mb 0.00 in0.0 mm 0.00 in0.0 mm 0.02 in0.5 mm
10:40 PM 54.5°F12.5°C 50.7°F10.4°C 87% 4.5 mph NNW7.2 kmh NNW 7.6 mph12.2 kmh 30.17 in1021.7 mb 0.00 in0.0 mm 0.00 in0.0 mm 0.02 in0.5 mm
10:55 PM 54.3°F12.4°C 50.2°F10.1°C 86% 4.0 mph N6.4 kmh N 7.6 mph12.2 kmh 30.18 in1022.0 mb 0.00 in0.0 mm 0.00 in0.0 mm 0.02 in0.5 mm
11:11 PM 54.1°F12.3°C 50.4°F10.2°C 87% 2.9 mph NNW4.7 kmh NNW 7.6 mph12.2 kmh 30.18 in1022.0 mb 0.00 in0.0 mm 0.00 in0.0 mm 0.02 in0.5 mm
11:26 PM 54.0°F12.2°C 49.8°F9.9°C 86% 3.8 mph NNW6.1 kmh NNW 10.1 mph16.3 kmh 30.18 in1022.0 mb 0.00 in0.0 mm 0.00 in0.0 mm 0.02 in0.5 mm
11:41 PM 53.8°F12.1°C 50.4°F10.2°C 88% 4.9 mph NNW7.9 kmh NNW 7.6 mph12.2 kmh 30.17 in1021.7 mb 0.00 in0.0 mm 0.00 in0.0 mm 0.02 in0.5 mm
11:56 PM 53.8°F12.1°C 50.5°F10.3°C 89% 2.2 mph NW3.5 kmh NW 7.6 mph12.2 kmh 30.18 in1022.0 mb 0.00 in0.0 mm 0.00 in0.0 mm 0.02 in0.5 mm